Terminal Aerodrome Forecast
Issued by NWS Twin Cities, MN

Home | Current Version | Previous Version | Graphics & Text | Print | Product List | Glossary On
Versions: 1 2 3 4 5 6 7 8 9 10 11 12 13 14
000
FTUS43 KMPX 201135
TAFEAU
TAF
KEAU 201135Z 2012/2112 15004KT P6SM BKN250
     FM201800 19010KT P6SM BKN200
     FM210300 23007KT P6SM SCT200
     FM210900 28013KT P6SM BKN050=

USA.gov is the U.S. government's official web portal to all federal, state and local government web resources and services.